Westminster, MD

1:35 AM EST on February 28, 2017 (GMT -0500)
Carroll County Regional-Poage

Weather History for KDMW - February, 2013

Change the Weather History Date:

Tuesday, February 19, 2013

  Actual Average (KTHV) Record (KTHV)
Temperature  
Mean Temperature 36 °F -  
Max Temperature 42 °F 0 °F 68 °F (2017)
Min Temperature 30 °F - 1 °F (2015)
Degree Days  
Heating Degree Days 29    
Moisture  
Dew Point 27 °F    
Average Humidity 70    
Maximum Humidity 93    
Minimum Humidity 41    
Precipitation  
Precipitation 0.03 in - - ()
Sea Level Pressure  
Sea Level Pressure 29.88 in    
Wind  
Wind Speed 10 mph (SSW)    
Max Wind Speed 22 mph    
Max Gust Speed 34 mph    
Visibility 9 miles    
Events Rain , Snow , Thunderstorm    
Averages and records for this station are not official NWS values.
T = Trace of Precipitation, MM = Missing Value Source: NWS Daily Summary

Daily Weather History Graph

Daily Weather History Graph

Search for Another Location

Airport or City:

Trip Planner

Search our weather history database for the weather conditions in past years. The results will help you decide how hot, cold, wet, or windy it might be!

Date:

Astronomy

Feb. 19, 2013 Rise Set
Actual Time 6:54 AM EST 5:49 PM EST
Civil Twilight 6:27 AM EST 6:16 PM EST
Nautical Twilight 5:56 AM EST 6:48 PM EST
Astronomical Twilight 5:24 AM EST 7:19 PM EST
Moon 12:19 PM EST (2/19) 2:24 AM EST (2/19)
Length of Visible Light 11h 49m
Length of Day
10h 54m
Waxing Gibbous, 67% of the Moon is Illuminated
Feb 19
Waxing Gibbous
Feb 25
Full
Mar 4
Last Quarter
Mar 11
New
Mar 19
First Quarter

Hourly Weather History & Observations

Time (EST) Temp. Windchill Dew Point Humidity Pressure Visibility Wind Dir Wind Speed Gust Speed Precip Events Conditions
12:00 AM 33.8 °F 24.8 °F 12.2 °F 41% 30.13 in 10.0 mi South 12.7 mph 18.4 mph N/A   Unknown
12:20 AM 33.8 °F 25.8 °F 12.2 °F 41% 30.12 in 10.0 mi South 10.4 mph 16.1 mph N/A   Unknown
12:40 AM 33.8 °F 25.8 °F 14.0 °F 44% 30.11 in 10.0 mi South 10.4 mph - N/A   Unknown
1:00 AM 33.8 °F 25.3 °F 14.0 °F 44% 30.09 in 10.0 mi South 11.5 mph - N/A   Unknown
1:20 AM 32.0 °F 24.8 °F 15.8 °F 51% 30.09 in 10.0 mi South 8.1 mph - N/A   Unknown
2:00 AM 33.8 °F 27.0 °F 17.6 °F 52% 30.08 in 10.0 mi South 8.1 mph - N/A   Unknown
2:20 AM 33.8 °F 27.0 °F 17.6 °F 52% 30.07 in 10.0 mi South 8.1 mph - N/A   Unknown
2:40 AM 33.8 °F 27.7 °F 17.6 °F 52% 30.07 in 10.0 mi South 6.9 mph - N/A   Unknown
3:00 AM 32.0 °F 24.8 °F 17.6 °F 55% 30.06 in 10.0 mi South 8.1 mph - N/A   Unknown
3:20 AM 30.2 °F 24.3 °F 17.6 °F 60% 30.05 in 10.0 mi South 5.8 mph - N/A   Unknown
3:40 AM 32.0 °F 26.4 °F 17.6 °F 55% 30.03 in 10.0 mi SSE 5.8 mph - N/A   Unknown
4:00 AM 30.2 °F 24.3 °F 19.4 °F 64% 30.02 in 10.0 mi SSE 5.8 mph - N/A   Unknown
4:20 AM 32.0 °F 24.2 °F 19.4 °F 60% 30.02 in 10.0 mi SSE 9.2 mph - N/A   Unknown
4:40 AM 32.0 °F 24.8 °F 19.4 °F 60% 30.01 in 10.0 mi SSE 8.1 mph - N/A   Unknown
5:20 AM 30.2 °F 24.3 °F 19.4 °F 64% 29.99 in 10.0 mi SSE 5.8 mph - N/A   Unknown
5:40 AM 32.0 °F 25.6 °F 19.4 °F 60% 29.98 in 10.0 mi SSE 6.9 mph - N/A   Unknown
6:00 AM 32.0 °F 25.6 °F 21.2 °F 64% 29.98 in 10.0 mi SSE 6.9 mph - N/A   Unknown
6:20 AM 33.8 °F 27.0 °F 21.2 °F 60% 29.97 in 10.0 mi SSE 8.1 mph - N/A   Unknown
6:40 AM 33.8 °F 26.4 °F 21.2 °F 60% 29.97 in 10.0 mi South 9.2 mph - N/A   Unknown
7:20 AM 35.6 °F 28.0 °F 21.2 °F 56% 29.96 in 10.0 mi South 10.4 mph 18.4 mph N/A   Unknown
7:40 AM 37.4 °F 30.8 °F 21.2 °F 52% 29.94 in 10.0 mi South 9.2 mph 16.1 mph N/A   Unknown
8:00 AM 37.4 °F 30.3 °F 21.2 °F 52% 29.92 in 10.0 mi South 10.4 mph 18.4 mph N/A   Unknown
8:20 AM 39.2 °F 31.6 °F 21.2 °F 49% 29.91 in 10.0 mi South 12.7 mph 23.0 mph N/A   Unknown
9:00 AM 39.2 °F 30.5 °F 24.8 °F 56% 29.92 in 10.0 mi SSW 16.1 mph 21.9 mph N/A   Unknown
9:20 AM 37.4 °F 28.9 °F 28.4 °F 70% 29.92 in 5.0 mi South 13.8 mph 26.5 mph N/A Rain Light Rain
9:40 AM 35.6 °F 26.6 °F 30.2 °F 81% 29.92 in 3.0 mi South 13.8 mph - N/A Snow Light Snow
10:00 AM 35.6 °F 25.9 °F 30.2 °F 81% 29.91 in 2.5 mi SSW 16.1 mph 19.6 mph N/A Snow Light Snow
10:20 AM 33.8 °F 25.3 °F 32.0 °F 93% 29.91 in 2.0 mi South 11.5 mph 24.2 mph 0.01 in Snow Light Snow
10:40 AM 33.8 °F 25.8 °F 32.0 °F 93% 29.91 in 2.5 mi South 10.4 mph 16.1 mph 0.01 in Snow Light Snow
11:00 AM 33.8 °F 25.8 °F 32.0 °F 93% 29.89 in 4.0 mi South 10.4 mph - N/A Snow Light Snow
11:20 AM 35.6 °F 27.5 °F 33.8 °F 93% 29.88 in 10.0 mi South 11.5 mph - N/A Rain Rain
11:45 AM 37.4 °F 29.3 °F 35.6 °F 93% 29.87 in 10.0 mi South 12.7 mph 16.1 mph 0.01 in Rain Light Rain
12:05 PM 37.4 °F 31.4 °F 35.6 °F 93% 29.84 in 10.0 mi South 8.1 mph 17.3 mph N/A Rain Light Rain
12:25 PM 39.2 °F 30.5 °F 35.6 °F 87% 29.82 in 10.0 mi SSW 16.1 mph 21.9 mph N/A Rain Rain
12:45 PM 39.2 °F 31.2 °F 35.6 °F 87% 29.81 in 10.0 mi SSW 13.8 mph 21.9 mph N/A Rain Light Rain
1:05 PM 39.2 °F 30.8 °F 35.6 °F 87% 29.79 in 10.0 mi SSW 15.0 mph 24.2 mph N/A Rain Light Rain
1:25 PM 39.2 °F 31.6 °F 37.4 °F 93% 29.78 in 10.0 mi SSW 12.7 mph 18.4 mph N/A Rain Light Rain
2:05 PM 39.2 °F 33.0 °F 37.4 °F 93% 29.75 in 10.0 mi South 9.2 mph 19.6 mph N/A   Unknown
2:25 PM 41.0 °F 34.7 °F 37.4 °F 87% 29.73 in 10.0 mi South 10.4 mph 17.3 mph N/A   Unknown
2:45 PM 41.0 °F 36.4 °F 37.4 °F 87% 29.73 in 10.0 mi South 6.9 mph - N/A Rain Light Rain
3:05 PM 41.0 °F 35.2 °F 37.4 °F 87% 29.72 in 10.0 mi South 9.2 mph 16.1 mph N/A Rain Light Rain
3:25 PM 41.0 °F 35.8 °F 37.4 °F 87% 29.70 in 10.0 mi South 8.1 mph - N/A   Light Drizzle
3:45 PM 42.8 °F 36.6 °F 39.2 °F 87% 29.69 in 10.0 mi South 11.5 mph - N/A Thunderstorm Unknown
4:05 PM 42.8 °F 38.0 °F 39.2 °F 87% 29.68 in 10.0 mi South 8.1 mph - N/A   Unknown
4:25 PM 42.8 °F 36.6 °F 39.2 °F 87% 29.69 in 10.0 mi South 11.5 mph - N/A   Unknown
4:45 PM 42.8 °F 37.0 °F 39.2 °F 87% 29.69 in 10.0 mi SSW 10.4 mph - N/A   Unknown
5:05 PM 42.8 °F 37.0 °F 39.2 °F 87% 29.72 in 7.0 mi West 10.4 mph - N/A Rain Rain
5:45 PM 41.0 °F 37.1 °F 37.4 °F 87% 29.74 in 10.0 mi WSW 5.8 mph - 0.01 in   Unknown
6:05 PM 41.0 °F 37.1 °F 37.4 °F 87% 29.74 in 10.0 mi SW 5.8 mph - N/A   Unknown
6:25 PM 39.2 °F 35.0 °F 37.4 °F 93% 29.75 in 10.0 mi WSW 5.8 mph - N/A   Unknown
7:25 PM 39.2 °F 32.0 °F 28.4 °F 65% 29.77 in 10.0 mi WNW 11.5 mph 18.4 mph N/A   Unknown
8:05 PM 39.2 °F 32.5 °F 26.6 °F 61% 29.79 in 10.0 mi West 10.4 mph 16.1 mph N/A   Unknown
8:25 PM 37.4 °F 32.1 °F 28.4 °F 70% 29.79 in 10.0 mi WNW 6.9 mph - N/A   Unknown
8:45 PM 37.4 °F 31.4 °F 26.6 °F 65% 29.80 in 10.0 mi WNW 8.1 mph - N/A   Unknown
9:05 PM 37.4 °F 29.8 °F 24.8 °F 60% 29.80 in 10.0 mi West 11.5 mph 19.6 mph N/A   Unknown
9:25 PM 37.4 °F 30.3 °F 24.8 °F 60% 29.81 in 10.0 mi WNW 10.4 mph 24.2 mph N/A   Unknown
9:45 PM 35.6 °F 27.1 °F 26.6 °F 70% 29.82 in 10.0 mi WNW 12.7 mph 19.6 mph N/A   Unknown
10:20 PM 35.6 °F 25.2 °F 23.0 °F 60% 29.82 in 10.0 mi West 18.4 mph 27.6 mph N/A   Unknown
10:45 PM 35.6 °F 24.5 °F 21.2 °F 56% 29.82 in 10.0 mi West 20.7 mph 29.9 mph N/A   Unknown
11:25 PM 33.8 °F 21.9 °F 21.2 °F 60% 29.82 in 10.0 mi West 21.9 mph 34.5 mph N/A   Unknown
11:45 PM 33.8 °F 22.5 °F 21.2 °F 60% 29.82 in 10.0 mi West 19.6 mph 29.9 mph N/A   Unknown